Time;durP1;ratioP1;P1;durP2;ratioP2;P2;SDS_P1;SDS_P2;PMS_P1;PMS_P2;Temp;Humidity;BMP_temperature;BMP_pressure;BME280_temperature;BME280_humidity;BME280_pressure;Samples;Min_cycle;Max_cycle;Signal;HPM_P1;HPM_P2
2022/08/06 00:02:27;;;;;;;1.60;0.70;;;;;;;15.42;100.00;98974.50;15287236;19;20034;-75
2022/08/06 00:07:38;;;;;;;1.50;0.70;;;;;;;15.36;100.00;98956.22;15289858;19;20022;-74
2022/08/06 00:12:52;;;;;;;1.17;0.70;;;;;;;15.27;100.00;98952.69;15294964;19;20010;-74
2022/08/06 00:17:57;;;;;;;1.00;0.60;;;;;;;15.16;100.00;98956.69;15291487;19;20078;-74
2022/08/06 00:23:05;;;;;;;2.25;0.60;;;;;;;15.06;100.00;98962.31;15295863;19;20085;-74
2022/08/06 00:28:20;;;;;;;2.38;0.77;;;;;;;14.92;100.00;98955.78;15295964;19;20021;-74
2022/08/06 00:33:34;;;;;;;2.03;0.63;;;;;;;14.88;100.00;98959.84;15288438;19;20035;-73
2022/08/06 00:39:04;;;;;;;1.85;0.60;;;;;;;14.69;100.00;98961.09;15292824;19;20020;-73
2022/08/06 00:44:13;;;;;;;1.85;0.43;;;;;;;14.69;100.00;98979.25;15291860;19;20017;-74
2022/08/06 00:49:18;;;;;;;1.98;0.55;;;;;;;14.64;100.00;98979.75;15289710;19;20384;-73
2022/08/06 00:54:46;;;;;;;2.15;0.50;;;;;;;14.53;100.00;98971.97;15289622;19;20006;-74
2022/08/06 00:59:53;;;;;;;3.80;0.50;;;;;;;14.47;100.00;98960.81;15288518;19;20030;-73
2022/08/06 01:04:58;;;;;;;0.77;0.40;;;;;;;14.39;100.00;98963.53;15279673;19;20018;-73
2022/08/06 01:10:13;;;;;;;1.80;0.30;;;;;;;14.32;100.00;98967.94;15285141;19;20014;-74
2022/08/06 01:15:19;;;;;;;2.13;0.50;;;;;;;14.21;100.00;98984.56;15300662;19;20019;-73
2022/08/06 01:20:55;;;;;;;1.98;0.60;;;;;;;14.18;100.00;98994.72;15302364;19;20351;-74
2022/08/06 01:26:39;;;;;;;4.35;0.50;;;;;;;14.05;100.00;98998.97;15297225;19;20025;-74
2022/08/06 01:31:51;;;;;;;2.00;0.50;;;;;;;14.11;100.00;99017.28;15302554;19;20017;-74
2022/08/06 01:37:01;;;;;;;2.42;0.50;;;;;;;14.06;100.00;99031.28;15302959;19;20347;-73
2022/08/06 01:42:10;;;;;;;1.05;0.32;;;;;;;14.09;100.00;99017.41;15309051;19;20022;-73
2022/08/06 01:47:20;;;;;;;2.38;0.50;;;;;;;13.98;100.00;99017.75;15309646;19;20007;-74
2022/08/06 01:52:27;;;;;;;1.33;0.50;;;;;;;13.92;100.00;99026.56;15373022;19;20010;-74
2022/08/06 01:57:37;;;;;;;2.03;0.45;;;;;;;13.86;100.00;99039.75;15305355;19;20036;-74
2022/08/06 02:03:10;;;;;;;1.27;0.40;;;;;;;13.85;100.00;99032.63;15300387;19;20014;-74
2022/08/06 02:08:23;;;;;;;1.98;0.50;;;;;;;13.82;100.00;99041.09;15292530;19;20088;-73
2022/08/06 02:13:46;;;;;;;2.63;0.50;;;;;;;13.78;100.00;99044.31;15299343;19;20017;-73
2022/08/06 02:18:55;;;;;;;0.88;0.30;;;;;;;13.73;100.00;99052.94;15299051;19;20014;-73
2022/08/06 02:24:05;;;;;;;3.00;0.50;;;;;;;13.67;100.00;99062.56;15299697;19;20413;-73
2022/08/06 02:29:16;;;;;;;2.30;0.40;;;;;;;13.62;100.00;99066.78;15291722;19;20042;-73
2022/08/06 02:34:25;;;;;;;1.50;0.47;;;;;;;13.62;100.00;99083.03;15295435;19;20353;-73
2022/08/06 02:39:40;;;;;;;1.17;0.50;;;;;;;13.55;100.00;99099.94;15289215;19;20614;-74
2022/08/06 02:45:03;;;;;;;1.67;0.38;;;;;;;13.43;100.00;99090.44;15296765;19;20023;-73
2022/08/06 02:50:15;;;;;;;1.08;0.40;;;;;;;13.22;100.00;99083.53;15293260;19;20018;-74
2022/08/06 02:55:22;;;;;;;1.17;0.40;;;;;;;13.20;100.00;99093.69;15294145;19;20022;-73
2022/08/06 03:00:42;;;;;;;1.48;0.40;;;;;;;13.16;100.00;99095.00;15287915;19;20010;-73
2022/08/06 03:06:01;;;;;;;1.73;0.38;;;;;;;13.12;100.00;99101.72;15293090;19;20039;-73
2022/08/06 03:11:08;;;;;;;1.58;0.40;;;;;;;13.05;100.00;99108.81;15289945;19;20078;-73
2022/08/06 03:16:14;;;;;;;1.38;0.40;;;;;;;13.02;100.00;99109.13;15288951;19;20011;-73
2022/08/06 03:21:35;;;;;;;1.00;0.20;;;;;;;12.97;100.00;99106.91;15295362;19;20047;-77
2022/08/06 03:26:43;;;;;;;2.83;0.40;;;;;;;12.97;100.00;99106.91;15295701;19;20010;-74
2022/08/06 03:31:48;;;;;;;1.27;0.40;;;;;;;12.94;100.00;99116.19;15290575;19;20005;-74
2022/08/06 03:37:19;;;;;;;0.93;0.30;;;;;;;12.90;100.00;99141.84;15293297;19;20074;-74
2022/08/06 03:42:32;;;;;;;1.02;0.40;;;;;;;12.86;100.00;99137.78;15298101;19;20027;-74
2022/08/06 03:47:45;;;;;;;2.38;0.40;;;;;;;12.76;100.00;99139.72;15289089;19;20038;-74
2022/08/06 03:53:20;;;;;;;0.60;0.35;;;;;;;12.73;100.00;99142.75;15295653;19;20007;-74
2022/08/06 03:58:30;;;;;;;0.98;0.35;;;;;;;12.78;100.00;99156.63;15297542;19;20526;-74
2022/08/06 04:03:38;;;;;;;1.23;0.40;;;;;;;12.71;100.00;99155.56;15297231;19;20022;-73
2022/08/06 04:08:47;;;;;;;1.80;0.50;;;;;;;12.74;100.00;99169.63;15290014;19;20082;-74
2022/08/06 04:13:52;;;;;;;1.25;0.50;;;;;;;12.77;100.00;99171.16;15296254;19;20044;-74
2022/08/06 04:19:13;;;;;;;2.08;0.45;;;;;;;12.80;100.00;99176.25;15287792;19;20023;-73
2022/08/06 04:24:22;;;;;;;2.03;0.40;;;;;;;12.78;100.00;99187.25;15291251;19;20023;-74
2022/08/06 04:29:38;;;;;;;1.75;0.30;;;;;;;12.74;100.00;99209.34;15290566;19;20011;-73
2022/08/06 04:35:05;;;;;;;1.80;0.40;;;;;;;12.70;100.00;99218.75;15294730;19;20018;-72
2022/08/06 04:40:34;;;;;;;1.45;0.50;;;;;;;12.62;100.00;99217.69;15290009;19;20317;-74
2022/08/06 04:45:47;;;;;;;1.55;0.40;;;;;;;12.58;100.00;99221.69;15294247;19;20019;-74
2022/08/06 04:51:14;;;;;;;1.30;0.43;;;;;;;12.51;100.00;99242.25;15297014;19;20007;-75
2022/08/06 04:56:43;;;;;;;1.52;0.40;;;;;;;12.45;100.00;99249.13;15311894;19;20021;-73
2022/08/06 05:01:53;;;;;;;1.83;0.40;;;;;;;12.44;100.00;99255.53;15337696;19;20017;-74
2022/08/06 05:07:13;;;;;;;3.20;0.50;;;;;;;12.43;100.00;99261.06;15342607;19;20023;-73
2022/08/06 05:12:28;;;;;;;1.67;0.50;;;;;;;12.45;100.00;99264.47;15314947;19;20275;-73
2022/08/06 05:17:39;;;;;;;1.88;0.50;;;;;;;12.44;100.00;99273.56;15318952;19;20015;-73
2022/08/06 05:22:58;;;;;;;1.38;0.60;;;;;;;12.45;100.00;99270.75;15373262;19;20109;-74
2022/08/06 05:28:11;;;;;;;1.17;0.60;;;;;;;12.47;100.00;99284.94;15304405;19;20078;-74
2022/08/06 05:33:27;;;;;;;1.17;0.52;;;;;;;12.52;100.00;99295.31;15303279;19;20027;-78
2022/08/06 05:38:37;;;;;;;2.33;0.60;;;;;;;12.56;100.00;99298.56;15301990;19;20022;-73
2022/08/06 05:43:59;;;;;;;0.85;0.50;;;;;;;12.61;100.00;99290.81;15301380;19;20015;-73
2022/08/06 05:49:11;;;;;;;0.88;0.50;;;;;;;12.69;100.00;99292.75;15302413;19;20728;-72
2022/08/06 05:54:41;;;;;;;2.50;0.65;;;;;;;12.77;100.00;99293.69;15300377;19;20006;-73
2022/08/06 05:59:56;;;;;;;1.48;0.50;;;;;;;12.88;100.00;99292.59;15298344;19;20783;-72
2022/08/06 06:05:05;;;;;;;2.28;0.52;;;;;;;13.00;100.00;99295.06;15303847;19;20043;-73
2022/08/06 06:10:33;;;;;;;2.15;0.70;;;;;;;13.18;100.00;99295.91;15301102;19;20020;-73
2022/08/06 06:15:49;;;;;;;2.28;0.40;;;;;;;13.60;100.00;99296.22;15293759;19;20037;-74
2022/08/06 06:21:33;;;;;;;3.13;0.40;;;;;;;14.02;100.00;99300.91;15291065;19;20020;-74
2022/08/06 06:26:46;;;;;;;3.65;0.57;;;;;;;14.38;100.00;99292.56;15290344;19;20025;-74
2022/08/06 06:32:06;;;;;;;3.55;0.50;;;;;;;14.75;100.00;99293.19;15294620;19;20422;-73
2022/08/06 06:37:42;;;;;;;3.22;0.47;;;;;;;14.61;100.00;99294.66;15302893;19;20015;-76
2022/08/06 06:43:02;;;;;;;3.50;0.50;;;;;;;14.86;100.00;99294.75;15301019;19;20498;-75
2022/08/06 06:48:15;;;;;;;1.70;0.50;;;;;;;14.78;100.00;99296.41;15293906;19;20357;-75
2022/08/06 06:53:23;;;;;;;1.80;0.57;;;;;;;14.95;100.00;99301.88;15298801;19;20014;-75
2022/08/06 06:58:50;;;;;;;1.30;0.40;;;;;;;14.94;100.00;99300.16;15291189;19;20026;-76
2022/08/06 07:03:59;;;;;;;0.93;0.35;;;;;;;15.13;100.00;99304.44;15296204;19;20034;-76
2022/08/06 07:09:05;;;;;;;2.30;0.43;;;;;;;15.10;100.00;99302.03;15293115;19;20014;-75
2022/08/06 07:14:20;;;;;;;0.80;0.40;;;;;;;15.24;100.00;99305.94;15294083;19;20487;-76
2022/08/06 07:19:32;;;;;;;1.20;0.50;;;;;;;15.45;100.00;99308.16;15293086;19;20022;-75
2022/08/06 07:24:39;;;;;;;2.15;0.50;;;;;;;15.52;100.00;99319.16;15295625;19;20424;-74
2022/08/06 07:29:52;;;;;;;1.58;0.50;;;;;;;15.63;100.00;99309.84;15287117;19;20014;-73
2022/08/06 07:35:08;;;;;;;1.08;0.30;;;;;;;15.73;100.00;99310.50;15295885;19;20027;-73
2022/08/06 07:40:24;;;;;;;2.28;0.30;;;;;;;15.62;100.00;99310.84;15294838;19;20135;-73
2022/08/06 07:45:35;;;;;;;1.50;0.30;;;;;;;15.85;100.00;99322.72;15294817;19;20034;-79
2022/08/06 07:51:02;;;;;;;1.77;0.40;;;;;;;16.10;100.00;99319.06;15290637;19;20007;-79
2022/08/06 07:56:11;;;;;;;1.48;0.40;;;;;;;15.91;100.00;99321.19;15296362;19;20011;-78
2022/08/06 08:01:19;;;;;;;0.50;0.30;;;;;;;15.93;100.00;99326.44;15293968;19;20018;-78
2022/08/06 08:06:32;;;;;;;2.50;0.40;;;;;;;16.00;100.00;99328.28;15290359;19;20034;-78
2022/08/06 08:11:49;;;;;;;1.23;0.20;;;;;;;16.16;100.00;99332.00;15288313;19;20018;-78
2022/08/06 08:17:15;;;;;;;2.35;0.52;;;;;;;16.35;100.00;99329.88;15291901;19;20031;-78
2022/08/06 08:22:24;;;;;;;0.70;0.30;;;;;;;16.56;100.00;99332.81;15289834;19;20045;-77
2022/08/06 08:27:28;;;;;;;0.55;0.22;;;;;;;16.72;100.00;99331.03;15312071;19;20015;-78
2022/08/06 08:32:34;;;;;;;0.50;0.20;;;;;;;16.88;100.00;99332.81;15319270;19;20373;-78
2022/08/06 08:37:42;;;;;;;0.88;0.20;;;;;;;16.60;100.00;99336.03;15311069;19;20378;-78
2022/08/06 08:42:53;;;;;;;0.85;0.22;;;;;;;16.57;100.00;99334.53;15320241;19;20010;-78
2022/08/06 08:48:03;;;;;;;3.55;0.35;;;;;;;16.68;100.00;99329.69;15317577;19;20003;-77
2022/08/06 08:53:27;;;;;;;1.40;0.30;;;;;;;16.84;100.00;99334.19;15358937;19;20006;-78
2022/08/06 08:58:50;;;;;;;1.42;0.30;;;;;;;17.06;100.00;99333.41;15344639;19;20550;-77
2022/08/06 09:04:07;;;;;;;1.27;0.38;;;;;;;17.34;100.00;99319.25;15311795;19;20034;-76
2022/08/06 09:09:17;;;;;;;1.55;0.40;;;;;;;17.54;100.00;99335.06;15301790;19;20088;-77
2022/08/06 09:14:27;;;;;;;0.55;0.30;;;;;;;17.34;100.00;99323.84;15309330;19;20039;-77
2022/08/06 09:19:37;;;;;;;2.05;0.30;;;;;;;17.18;100.00;99325.66;15308795;19;20361;-77
2022/08/06 09:24:48;;;;;;;0.70;0.20;;;;;;;17.41;100.00;99313.91;15310204;19;20017;-77
2022/08/06 09:29:57;;;;;;;1.27;0.40;;;;;;;17.33;100.00;99320.25;15301219;19;20697;-76
2022/08/06 09:35:19;;;;;;;2.42;0.35;;;;;;;17.29;100.00;99312.66;15311945;19;20013;-76
2022/08/06 09:41:04;;;;;;;1.80;0.40;;;;;;;17.40;100.00;99310.31;15302100;19;20013;-76
2022/08/06 09:46:10;;;;;;;0.55;0.30;;;;;;;17.32;82.56;99320.47;15308158;19;20011;-77
2022/08/06 09:51:23;;;;;;;0.60;0.22;;;;;;;17.34;96.72;99318.41;15304146;19;20018;-77
2022/08/06 09:56:59;;;;;;;2.88;0.50;;;;;;;17.54;95.92;99325.03;15307898;19;20021;-77
2022/08/06 10:02:15;;;;;;;1.17;0.30;;;;;;;17.59;94.80;99326.31;15297406;19;20006;-77
2022/08/06 10:07:32;;;;;;;0.73;0.30;;;;;;;17.84;85.20;99324.22;15303969;19;20023;-77
2022/08/06 10:12:47;;;;;;;1.15;0.30;;;;;;;18.04;94.83;99312.78;15301160;19;20094;-77
2022/08/06 10:17:52;;;;;;;1.17;0.30;;;;;;;18.34;79.61;99319.09;15307682;19;20035;-77
2022/08/06 10:22:58;;;;;;;0.77;0.20;;;;;;;18.48;77.70;99320.94;15308802;19;20027;-76
2022/08/06 10:28:06;;;;;;;1.30;0.30;;;;;;;18.72;69.05;99308.00;15305550;19;20490;-76
2022/08/06 10:33:14;;;;;;;1.00;0.30;;;;;;;18.97;72.73;99313.13;15302317;19;20369;-76
2022/08/06 10:38:31;;;;;;;2.17;0.38;;;;;;;19.06;81.91;99305.63;15307274;19;20034;-77
2022/08/06 10:43:44;;;;;;;;;;;;;;;19.02;73.60;99307.09;15299726;19;20014;-77
2022/08/06 10:48:50;;;;;;;1.20;0.40;;;;;;;18.78;67.92;99331.78;15304874;19;20274;-77
2022/08/06 10:54:15;;;;;;;1.20;0.25;;;;;;;18.51;68.75;99307.97;15308522;19;20074;-76
2022/08/06 10:59:30;;;;;;;1.45;0.30;;;;;;;18.81;70.65;99308.75;15357090;19;20002;-76
2022/08/06 11:04:51;;;;;;;0.88;0.30;;;;;;;18.93;68.67;99306.34;15347466;19;20014;-77
2022/08/06 11:10:09;;;;;;;0.43;0.20;;;;;;;18.84;63.79;99308.34;15301104;19;20011;-77
2022/08/06 11:15:17;;;;;;;0.60;0.30;;;;;;;18.98;63.33;99298.44;15296527;19;20027;-76
2022/08/06 11:20:44;;;;;;;1.65;0.30;;;;;;;19.12;59.71;99304.88;15300854;19;20046;-77
2022/08/06 11:25:51;;;;;;;1.48;0.40;;;;;;;19.23;63.73;99298.03;15302692;19;20454;-77
2022/08/06 11:31:00;;;;;;;1.63;0.40;;;;;;;19.18;62.87;99297.78;15299294;19;20025;-77
2022/08/06 11:36:09;;;;;;;2.37;0.27;;;;;;;18.96;59.52;99288.72;15298279;19;20563;-76
2022/08/06 11:41:21;;;;;;;2.67;0.30;;;;;;;19.21;57.73;99291.94;15299498;19;20014;-77
2022/08/06 11:46:50;;;;;;;2.38;0.52;;;;;;;19.47;59.93;99287.72;15301714;19;20058;-77
2022/08/06 11:51:57;;;;;;;0.75;0.20;;;;;;;19.55;60.32;99288.44;15292473;19;20090;-77
2022/08/06 11:57:27;;;;;;;0.88;0.35;;;;;;;19.86;58.32;99286.34;15297638;19;20027;-77
2022/08/06 12:03:01;;;;;;;1.20;0.40;;;;;;;20.01;60.33;99281.63;15299346;19;20017;-76
2022/08/06 12:08:22;;;;;;;0.50;0.30;;;;;;;20.00;54.20;99282.66;15294113;19;20006;-77
2022/08/06 12:13:46;;;;;;;1.63;0.28;;;;;;;20.28;56.84;99289.09;15297462;19;20006;-77
2022/08/06 12:19:17;;;;;;;1.50;0.30;;;;;;;20.25;55.15;99284.91;15294338;19;20078;-77
2022/08/06 12:24:27;;;;;;;0.50;0.30;;;;;;;20.28;56.14;99275.44;15298112;19;20014;-77
2022/08/06 12:29:58;;;;;;;1.08;0.40;;;;;;;20.51;54.51;99277.00;15299359;19;20040;-77
2022/08/06 12:35:13;;;;;;;1.98;0.40;;;;;;;20.50;53.15;99272.56;15302786;19;20034;-77
2022/08/06 12:40:32;;;;;;;3.15;0.30;;;;;;;20.64;52.04;99258.69;15298122;19;20014;-76
2022/08/06 12:45:41;;;;;;;2.05;0.40;;;;;;;20.85;54.56;99264.25;15306525;19;20014;-77
2022/08/06 12:51:14;;;;;;;1.85;0.40;;;;;;;20.82;52.38;99265.53;15361024;19;20010;-73
2022/08/06 12:56:22;;;;;;;1.52;0.40;;;;;;;21.18;51.77;99256.09;15302432;19;20365;-76
2022/08/06 13:01:39;;;;;;;1.45;0.30;;;;;;;21.11;49.94;99257.97;15287088;19;20027;-76
2022/08/06 13:07:07;;;;;;;1.58;0.40;;;;;;;21.53;52.78;99253.13;15295692;19;20025;-76
2022/08/06 13:12:21;;;;;;;1.77;0.30;;;;;;;21.43;49.43;99260.09;15296837;19;20021;-76
2022/08/06 13:17:34;;;;;;;0.65;0.30;;;;;;;21.58;49.56;99263.47;15302590;19;20015;-76
2022/08/06 13:23:03;;;;;;;1.42;0.50;;;;;;;21.59;48.83;99239.59;15301326;19;20022;-75
2022/08/06 13:28:17;;;;;;;0.60;0.20;;;;;;;21.71;49.98;99237.94;15304209;19;20042;-76
2022/08/06 13:33:28;;;;;;;0.93;0.30;;;;;;;21.64;46.98;99240.69;15312575;19;20021;-76
2022/08/06 13:38:39;;;;;;;0.57;0.22;;;;;;;22.02;48.68;99244.63;15306860;19;20014;-77
2022/08/06 13:43:48;;;;;;;1.23;0.22;;;;;;;22.16;46.86;99237.19;15315070;19;20007;-76
2022/08/06 13:49:02;;;;;;;1.70;0.47;;;;;;;22.66;46.50;99236.53;15308889;19;20018;-77
2022/08/06 13:54:22;;;;;;;1.73;0.38;;;;;;;22.48;43.45;99234.53;15295170;19;20074;-76
2022/08/06 13:59:29;;;;;;;0.93;0.32;;;;;;;22.50;43.31;99221.41;15293240;19;20010;-76
2022/08/06 14:04:46;;;;;;;0.70;0.30;;;;;;;23.17;45.71;99229.19;15297852;19;20021;-76
2022/08/06 14:09:57;;;;;;;0.38;0.20;;;;;;;23.36;43.78;99230.13;15301705;19;20021;-76
2022/08/06 14:15:15;;;;;;;0.47;0.20;;;;;;;23.92;43.11;99230.22;15301830;19;20137;-76
2022/08/06 14:20:31;;;;;;;1.35;0.20;;;;;;;24.38;42.66;99227.16;15290383;19;20082;-76
2022/08/06 14:25:46;;;;;;;0.50;0.25;;;;;;;23.32;39.94;99226.16;15294279;19;20011;-77
2022/08/06 14:31:08;;;;;;;0.40;0.20;;;;;;;23.18;41.29;99230.88;15291459;19;20011;-76
2022/08/06 14:36:15;;;;;;;0.30;0.13;;;;;;;23.59;43.43;99223.13;15301263;19;20086;-76
2022/08/06 14:46:58;;;;;;;2.25;0.40;;;;;;;23.61;41.39;99215.50;15301968;19;20014;-75
2022/08/06 14:52:05;;;;;;;0.47;0.25;;;;;;;24.10;40.63;99214.78;15294268;19;20465;-76
2022/08/06 14:57:30;;;;;;;0.50;0.20;;;;;;;24.24;38.46;99212.69;15303492;19;20375;-77
2022/08/06 15:02:55;;;;;;;0.30;0.20;;;;;;;24.34;41.70;99203.88;15297952;19;20022;-76
2022/08/06 15:08:00;;;;;;;0.43;0.20;;;;;;;24.43;41.17;99208.00;15303327;19;20019;-76
2022/08/06 15:13:08;;;;;;;1.25;0.40;;;;;;;25.08;39.56;99198.97;15303163;19;20460;-78
2022/08/06 15:18:14;;;;;;;1.60;0.20;;;;;;;25.20;40.35;99201.78;15296167;19;20018;-76
2022/08/06 15:23:40;;;;;;;1.17;0.15;;;;;;;25.20;39.72;99198.16;15277225;19;20014;-77
2022/08/06 15:29:01;;;;;;;0.38;0.20;;;;;;;25.08;38.01;99195.41;15298173;19;20011;-77
2022/08/06 15:34:16;;;;;;;0.75;0.30;;;;;;;25.01;40.48;99201.03;15291110;19;20103;-74
2022/08/06 15:39:32;;;;;;;1.45;0.30;;;;;;;24.81;36.97;99201.34;15297506;19;20018;-76
2022/08/06 15:44:59;;;;;;;0.50;0.28;;;;;;;24.42;38.60;99196.16;15298239;19;20040;-76
2022/08/06 15:50:05;;;;;;;0.85;0.20;;;;;;;23.84;40.11;99202.97;15295739;19;20030;-76
2022/08/06 15:55:11;;;;;;;1.00;0.32;;;;;;;23.84;40.29;99202.97;15295508;19;20007;-77
2022/08/06 16:00:23;;;;;;;0.47;0.20;;;;;;;23.85;39.84;99202.78;15295693;19;20028;-73
2022/08/06 16:05:29;;;;;;;1.23;0.30;;;;;;;23.47;41.03;99208.44;15289801;19;20010;-76
2022/08/06 16:10:55;;;;;;;2.40;0.40;;;;;;;22.99;41.24;99198.91;15295423;19;20463;-77
2022/08/06 16:16:02;;;;;;;0.98;0.20;;;;;;;23.05;40.19;99204.34;15301958;19;20011;-78
2022/08/06 16:21:08;;;;;;;1.00;0.30;;;;;;;22.95;40.19;99201.25;15304904;19;20014;-78
2022/08/06 16:26:19;;;;;;;2.83;0.30;;;;;;;23.05;40.74;99198.84;15303127;19;20038;-76
2022/08/06 16:31:48;;;;;;;1.13;0.30;;;;;;;23.39;40.25;99196.69;15302886;19;20015;-77
2022/08/06 16:36:57;;;;;;;0.57;0.22;;;;;;;23.73;39.28;99201.84;15308360;19;20073;-77
2022/08/06 16:42:09;;;;;;;0.20;0.20;;;;;;;23.98;39.61;99193.53;15303006;19;20018;-77
2022/08/06 16:47:17;;;;;;;1.35;0.30;;;;;;;24.01;39.90;99192.22;15325755;19;20019;-77
2022/08/06 16:52:34;;;;;;;1.40;0.30;;;;;;;24.50;38.38;99197.75;15366353;19;20014;-77
2022/08/06 16:58:06;;;;;;;0.95;0.30;;;;;;;24.84;39.61;99200.00;15384889;19;20054;-78
2022/08/06 17:03:23;;;;;;;1.02;0.35;;;;;;;24.95;38.21;99203.88;15345634;19;20023;-77
2022/08/06 17:08:48;;;;;;;1.17;0.25;;;;;;;25.11;37.88;99194.91;15319639;19;20022;-77
2022/08/06 17:13:57;;;;;;;2.10;0.20;;;;;;;24.98;37.74;99190.47;15311525;19;20380;-79
2022/08/06 17:19:06;;;;;;;2.97;0.30;;;;;;;24.84;37.02;99200.88;15317202;19;20038;-77
2022/08/06 17:24:23;;;;;;;2.00;0.30;;;;;;;24.88;36.86;99201.22;15320311;19;20022;-78
2022/08/06 17:29:50;;;;;;;0.57;0.20;;;;;;;24.86;38.30;99201.47;15318278;19;20010;-78
2022/08/06 17:34:58;;;;;;;0.82;0.30;;;;;;;24.95;38.72;99201.13;15316586;19;20058;-77
2022/08/06 17:40:04;;;;;;;0.57;0.25;;;;;;;24.56;38.34;99199.53;15318191;19;20010;-78
2022/08/06 17:45:22;;;;;;;0.77;0.25;;;;;;;24.50;38.13;99205.16;15316220;19;20102;-78
2022/08/06 17:50:30;;;;;;;0.65;0.22;;;;;;;24.44;38.53;99204.16;15315751;19;20010;-78
2022/08/06 17:55:46;;;;;;;1.50;0.20;;;;;;;24.42;38.63;99214.56;15314316;19;20007;-77
2022/08/06 18:01:04;;;;;;;1.60;0.20;;;;;;;24.10;39.20;99214.78;15308953;19;20046;-77
2022/08/06 18:06:23;;;;;;;5.18;0.43;;;;;;;24.00;39.07;99221.69;15299616;19;20038;-77
2022/08/06 18:11:33;;;;;;;3.22;0.38;;;;;;;23.77;39.42;99225.06;15303985;19;20481;-77
2022/08/06 18:16:40;;;;;;;5.18;0.47;;;;;;;23.48;39.31;99232.13;15296475;19;20002;-75
2022/08/06 18:21:48;;;;;;;1.95;0.50;;;;;;;23.05;40.92;99229.09;15297674;19;20022;-77
2022/08/06 18:26:54;;;;;;;3.67;0.30;;;;;;;22.52;41.01;99229.47;15307193;19;20011;-76
2022/08/06 18:31:59;;;;;;;9.00;0.50;;;;;;;22.23;41.73;99228.91;15298229;19;20488;-76
2022/08/06 18:37:11;;;;;;;4.20;0.40;;;;;;;21.73;41.09;99238.56;15295787;19;20007;-76
2022/08/06 18:42:34;;;;;;;5.32;0.52;;;;;;;21.23;42.58;99244.50;15301533;19;20015;-77
2022/08/06 18:47:39;;;;;;;7.72;0.43;;;;;;;20.77;42.94;99240.66;15294657;19;20073;-77
2022/08/06 18:52:47;;;;;;;1.55;0.30;;;;;;;20.50;43.69;99239.72;15295997;19;20026;-75
2022/08/06 18:57:54;;;;;;;3.00;0.30;;;;;;;20.19;43.46;99239.19;15294909;19;20519;-73
2022/08/06 19:03:18;;;;;;;1.10;0.22;;;;;;;20.01;45.30;99242.47;15295139;19;20606;-73
2022/08/06 19:08:30;;;;;;;0.55;0.20;;;;;;;19.82;45.10;99250.34;15287405;19;20401;-73
2022/08/06 19:13:36;;;;;;;1.13;0.20;;;;;;;19.62;45.47;99247.47;15286863;19;21005;-73
2022/08/06 19:19:02;;;;;;;1.90;0.30;;;;;;;19.39;45.76;99250.47;15284896;19;20014;-73
2022/08/06 19:24:10;;;;;;;2.20;0.40;;;;;;;19.25;46.30;99257.69;15291908;19;20010;-73
2022/08/06 19:29:35;;;;;;;0.73;0.30;;;;;;;19.14;47.59;99259.09;15293836;19;20015;-73
2022/08/06 19:35:01;;;;;;;0.47;0.17;;;;;;;18.98;47.63;99256.63;15294100;19;20007;-73
2022/08/06 19:45:31;;;;;;;1.27;0.40;;;;;;;18.78;48.75;99255.34;15294056;19;20011;-73
2022/08/06 19:50:56;;;;;;;0.90;0.28;;;;;;;18.70;48.88;99258.22;15284494;19;20013;-73
2022/08/06 19:56:04;;;;;;;1.00;0.30;;;;;;;18.63;49.39;99270.97;15291104;19;20022;-74
2022/08/06 20:01:23;;;;;;;1.08;0.32;;;;;;;18.52;50.45;99269.56;15290609;19;20015;-73
2022/08/06 20:06:39;;;;;;;1.98;0.30;;;;;;;18.36;50.67;99284.28;15290780;19;20428;-72
2022/08/06 20:12:07;;;;;;;0.88;0.22;;;;;;;18.27;51.33;99279.97;15281955;19;20031;-73
2022/08/06 20:17:14;;;;;;;0.65;0.20;;;;;;;18.14;52.17;99281.50;15288925;19;20545;-74
2022/08/06 20:22:20;;;;;;;0.52;0.32;;;;;;;17.98;53.49;99288.00;15287213;19;20467;-74
2022/08/06 20:27:28;;;;;;;1.00;0.30;;;;;;;17.75;54.53;99282.56;15284712;19;20025;-78
2022/08/06 20:32:53;;;;;;;1.35;0.20;;;;;;;17.66;54.92;99283.69;15287321;19;20034;-74
2022/08/06 20:38:05;;;;;;;0.43;0.30;;;;;;;17.58;55.85;99284.63;15288629;19;20010;-74
2022/08/06 20:43:17;;;;;;;1.08;0.30;;;;;;;17.48;56.47;99293.06;15293379;19;20002;-74
2022/08/06 20:48:42;;;;;;;1.38;0.50;;;;;;;17.36;57.72;99289.94;15290720;19;20021;-74
2022/08/06 20:53:47;;;;;;;1.23;0.30;;;;;;;17.30;58.89;99287.09;15294222;19;20384;-75
2022/08/06 20:59:08;;;;;;;0.55;0.22;;;;;;;17.19;59.52;99283.78;15289802;19;20002;-74
2022/08/06 21:04:13;;;;;;;1.33;0.30;;;;;;;17.10;60.36;99282.19;15314917;19;20007;-73
2022/08/06 21:09:37;;;;;;;1.05;0.30;;;;;;;16.96;62.39;99272.91;15355667;19;20021;-74
2022/08/06 21:14:48;;;;;;;2.40;0.30;;;;;;;16.82;65.62;99277.22;15296628;19;20020;-74
2022/08/06 21:19:54;;;;;;;0.88;0.40;;;;;;;16.57;67.87;99280.09;15287692;19;20035;-75
2022/08/06 21:25:18;;;;;;;1.52;0.60;;;;;;;16.37;70.75;99278.88;15294843;19;20350;-74
2022/08/06 21:30:27;;;;;;;1.10;0.60;;;;;;;16.20;73.22;99275.38;15291118;19;20014;-74
2022/08/06 21:35:34;;;;;;;0.73;0.43;;;;;;;16.04;75.24;99282.56;15306844;19;20018;-74
2022/08/06 21:40:40;;;;;;;0.80;0.30;;;;;;;15.89;75.21;99279.75;14794663;19;10000078;-75
2022/08/06 21:45:48;;;;;;;0.85;0.30;;;;;;;15.85;76.80;99281.09;15306211;19;20013;-75
2022/08/06 21:51:09;;;;;;;1.95;0.30;;;;;;;15.72;78.67;99273.47;15298075;19;20010;-75
2022/08/06 21:56:17;;;;;;;1.52;0.30;;;;;;;15.69;78.35;99277.41;15307944;19;20041;-75
2022/08/06 22:01:45;;;;;;;0.80;0.60;;;;;;;15.51;87.62;99279.44;15296580;19;20018;-74
2022/08/06 22:07:10;;;;;;;2.70;0.57;;;;;;;15.29;92.95;99286.44;15304458;19;20021;-75
2022/08/06 22:12:19;;;;;;;0.75;0.70;;;;;;;15.03;99.71;99280.16;15303835;19;20487;-75
2022/08/06 22:17:46;;;;;;;1.33;0.70;;;;;;;14.83;100.00;99274.19;15304043;19;20017;-73
2022/08/06 22:23:06;;;;;;;1.10;0.70;;;;;;;14.78;99.14;99285.56;15296055;19;20025;-75
2022/08/06 22:28:11;;;;;;;3.03;1.00;;;;;;;14.72;100.00;99279.94;15300730;19;20015;-75
2022/08/06 22:33:39;;;;;;;0.70;0.60;;;;;;;14.64;100.00;99280.78;15290586;19;20490;-74
2022/08/06 22:39:02;;;;;;;1.38;0.50;;;;;;;14.55;100.00;99271.78;15299014;19;20023;-75
2022/08/06 22:44:10;;;;;;;1.15;0.77;;;;;;;14.43;100.00;99268.50;15326875;19;20035;-73
2022/08/06 22:49:20;;;;;;;1.02;0.80;;;;;;;14.31;100.00;99277.97;15370046;19;20019;-73
2022/08/06 22:54:26;;;;;;;1.10;0.90;;;;;;;14.20;100.00;99278.25;15298789;19;20074;-75
2022/08/06 22:59:51;;;;;;;1.13;0.75;;;;;;;14.07;100.00;99274.13;15299574;19;20015;-74
2022/08/06 23:05:19;;;;;;;1.00;0.60;;;;;;;13.94;100.00;99277.31;15294386;19;20060;-75
2022/08/06 23:10:24;;;;;;;0.88;0.40;;;;;;;13.87;100.00;99270.84;15298947;19;20030;-74
2022/08/06 23:15:29;;;;;;;1.25;0.40;;;;;;;13.80;100.00;99270.66;15298773;19;20015;-75
2022/08/06 23:20:48;;;;;;;2.22;0.50;;;;;;;13.73;100.00;99269.56;15297466;19;20018;-73
2022/08/06 23:25:53;;;;;;;1.02;0.55;;;;;;;13.62;100.00;99267.16;15293649;19;20002;-75
2022/08/06 23:31:07;;;;;;;0.80;0.50;;;;;;;13.53;100.00;99269.81;15296579;19;20027;-74
2022/08/06 23:36:15;;;;;;;2.95;0.70;;;;;;;13.41;100.00;99265.66;15289614;19;20010;-74
2022/08/06 23:41:21;;;;;;;2.55;0.63;;;;;;;13.35;100.00;99266.25;15295465;19;20011;-74
2022/08/06 23:46:46;;;;;;;0.55;0.55;;;;;;;13.28;100.00;99262.50;15294863;19;20014;-73
2022/08/06 23:52:03;;;;;;;1.45;0.70;;;;;;;13.18;100.00;99268.00;15294146;19;20010;-73
2022/08/06 23:57:28;;;;;;;0.75;0.60;;;;;;;13.09;100.00;99272.50;15291668;19;20070;-73
